Ocean Drive Beach, South Carolina
Current Conditions -  °F | °C
As of 4:53 PM on Friday 24 Oct 2014 (Local Time) from KCRE Reporting Station
Clear Clear  
Wind Chill: 67°   Ceiling: Unl
Heat Index: 67°   Visibility: 10mi
Dew Point: 50°   Wind: 7mph
Humidity: 54%   Direction: 180°S
Pressure: 29.96"   Gusts: NA
Location:  33.8371°N, 78.6471°W
Report Text: KCRE 242053Z 18006KT 10SM CLR 19/10 A2996 RMK AO1 SLP147 T01940100 56013
Loading
Personal Weather Stations






























Interactive Weather Map
Tropical Storm Tracking
New forecast layout! Learn more

10-Day Weather Forecast

Advertisements
Track Severe Weather on mobile